Terminal Aerodrome Forecast
Issued by NWS

Home | Current Version | Previous Version | Text Only | Print | Product List | Glossary On
Versions: 1 2 3 4 5 6 7 8 9 10 11 12 13 14 15 16 17 18 19
000
FTUS43 KGRR 191500 AAA
TAFLAN
TAF AMD
KLAN 191508Z 1915/2012 10014G22KT P6SM SCT120 BKN200
     FM192200 10014G22KT P6SM -RA OVC035
     FM200000 10018G28KT 4SM -RA BR OVC015
     FM200300 11020G30KT 2SM RA BR OVC005
     FM200900 20014G22KT 4SM -RA BR OVC003=

USA.gov is the U.S. government's official web portal to all federal, state and local government web resources and services.